Time;durP1;ratioP1;P1;durP2;ratioP2;P2;SDS_P1;SDS_P2;PMS_P1;PMS_P2;Temp;Humidity;BMP_temperature;BMP_pressure;BME280_temperature;BME280_humidity;BME280_pressure;Samples;Min_cycle;Max_cycle;Signal;HPM_P1;HPM_P2
2024/03/24 00:01:57;;;;;;;5.07;1.98;;;14.90;92.90;;;;;;4144548;28;20080;-45
2024/03/24 00:04:37;;;;;;;3.63;2.00;;;14.90;92.20;;;;;;4172277;28;20572;-46
2024/03/24 00:07:18;;;;;;;5.10;1.80;;;15.00;92.00;;;;;;4171286;28;20136;-45
2024/03/24 00:09:57;;;;;;;7.25;2.30;;;15.00;90.90;;;;;;4172396;28;20064;-46
2024/03/24 00:12:36;;;;;;;4.90;2.40;;;14.90;90.90;;;;;;4160796;28;20447;-46
2024/03/24 00:15:16;;;;;;;3.78;2.00;;;15.00;90.70;;;;;;4166841;28;20530;-45
2024/03/24 00:17:56;;;;;;;3.60;2.00;;;14.90;90.70;;;;;;4165443;28;20056;-46
2024/03/24 00:20:38;;;;;;;4.18;1.98;;;15.00;90.90;;;;;;4156061;28;20099;-47
2024/03/24 00:23:17;;;;;;;2.47;2.17;;;15.10;90.90;;;;;;4155885;28;20052;-45
2024/03/24 00:25:56;;;;;;;8.05;1.70;;;15.20;91.20;;;;;;4157226;28;20132;-46
2024/03/24 00:28:36;;;;;;;4.93;1.98;;;15.30;90.40;;;;;;4156879;28;20127;-45
2024/03/24 00:31:16;;;;;;;2.55;1.83;;;15.40;90.50;;;;;;4155931;28;20056;-45
2024/03/24 00:33:55;;;;;;;2.10;1.95;;;15.40;90.10;;;;;;4171703;28;20060;-47
2024/03/24 00:36:36;;;;;;;1.75;1.40;;;15.40;90.20;;;;;;4162548;28;20056;-47
2024/03/24 00:39:15;;;;;;;4.25;2.10;;;15.50;90.10;;;;;;4144027;28;20498;-45
2024/03/24 00:41:55;;;;;;;3.88;1.98;;;15.60;89.80;;;;;;4171832;28;20134;-45
2024/03/24 00:44:34;;;;;;;2.83;1.60;;;15.60;89.50;;;;;;4172024;28;20056;-46
2024/03/24 00:47:14;;;;;;;4.20;1.70;;;15.60;89.20;;;;;;4157822;28;20061;-46
2024/03/24 00:49:53;;;;;;;1.30;1.10;;;15.60;89.20;;;;;;4171216;28;20114;-45
2024/03/24 00:52:34;;;;;;;3.70;1.25;;;15.60;88.70;;;;;;4154830;28;20052;-45
2024/03/24 00:55:14;;;;;;;3.95;1.10;;;15.60;88.30;;;;;;4155297;28;20064;-41
2024/03/24 00:57:54;;;;;;;1.23;1.20;;;15.60;88.60;;;;;;4155176;28;20143;-41
2024/03/24 01:00:32;;;;;;;2.75;1.30;;;15.60;88.60;;;;;;4155133;28;20124;-40
2024/03/24 01:03:12;;;;;;;4.38;1.73;;;15.50;88.80;;;;;;4156336;28;20115;-40
2024/03/24 01:05:51;;;;;;;4.70;1.50;;;15.50;89.30;;;;;;4155270;28;20118;-41
2024/03/24 01:08:33;;;;;;;3.22;1.55;;;15.60;89.30;;;;;;4149378;28;20051;-41
2024/03/24 01:11:13;;;;;;;1.10;1.10;;;15.70;88.90;;;;;;4157809;28;20069;-41
2024/03/24 01:13:53;;;;;;;1.90;1.60;;;15.80;88.70;;;;;;4166803;28;20060;-41
2024/03/24 01:16:32;;;;;;;2.80;1.50;;;15.90;88.40;;;;;;4168833;28;20047;-41
2024/03/24 01:19:12;;;;;;;2.53;1.67;;;15.90;88.00;;;;;;4170849;28;20534;-40
2024/03/24 01:21:51;;;;;;;3.15;1.83;;;16.00;87.80;;;;;;4134310;28;20061;-40
2024/03/24 01:24:32;;;;;;;3.05;1.77;;;16.00;87.50;;;;;;4138701;28;20061;-41
2024/03/24 01:27:11;;;;;;;4.22;1.85;;;16.00;87.20;;;;;;4138286;28;20506;-41
2024/03/24 01:29:50;;;;;;;3.30;1.52;;;16.00;87.20;;;;;;4137826;28;20057;-41
2024/03/24 01:32:29;;;;;;;2.88;2.00;;;15.90;86.90;;;;;;4151393;28;20459;-41
2024/03/24 01:35:09;;;;;;;3.03;1.85;;;15.90;87.20;;;;;;4157736;28;20064;-40
2024/03/24 01:37:48;;;;;;;4.00;1.92;;;15.90;87.50;;;;;;4169598;28;20412;-41
2024/03/24 01:40:29;;;;;;;4.85;2.25;;;15.80;87.40;;;;;;4171151;28;20052;-41
2024/03/24 01:43:08;;;;;;;;;;;15.90;87.80;;;;;;4154714;28;20060;-41
2024/03/24 01:45:48;;;;;;;5.07;1.83;;;15.90;87.60;;;;;;4154429;28;19967;-41
2024/03/24 01:48:29;;;;;;;2.58;2.20;;;16.00;87.40;;;;;;4154585;28;20115;-41
2024/03/24 01:51:11;;;;;;;3.10;2.15;;;16.10;87.10;;;;;;4157440;28;20550;-41
2024/03/24 01:53:51;;;;;;;2.22;1.60;;;16.10;87.30;;;;;;4169888;28;20060;-41
2024/03/24 01:56:32;;;;;;;1.30;1.17;;;16.20;87.20;;;;;;4169005;28;20091;-40
2024/03/24 01:59:13;;;;;;;1.33;0.80;;;16.10;86.80;;;;;;4158192;28;20107;-41
2024/03/24 02:01:53;;;;;;;1.17;1.08;;;16.10;87.20;;;;;;4152253;28;20440;-41
2024/03/24 02:04:34;;;;;;;0.80;0.60;;;16.00;87.60;;;;;;4153880;28;20052;-40
2024/03/24 02:07:13;;;;;;;1.05;0.55;;;16.00;87.60;;;;;;4165782;28;20064;-41
2024/03/24 02:09:53;;;;;;;0.50;0.50;;;15.90;87.80;;;;;;4159353;28;20051;-41
2024/03/24 02:12:33;;;;;;;1.30;0.57;;;16.00;88.70;;;;;;4158273;28;20090;-41
2024/03/24 02:15:14;;;;;;;2.55;0.70;;;16.10;88.60;;;;;;4153798;28;20052;-46
2024/03/24 02:17:53;;;;;;;2.30;0.73;;;16.10;87.80;;;;;;4154349;28;20051;-42
2024/03/24 02:20:33;;;;;;;0.77;0.50;;;16.20;87.70;;;;;;4160983;28;20395;-46
2024/03/24 02:23:13;;;;;;;0.93;0.60;;;16.20;88.10;;;;;;4159439;28;20051;-45
2024/03/24 02:25:54;;;;;;;0.40;0.40;;;16.20;87.40;;;;;;4166981;28;20103;-42
2024/03/24 02:28:33;;;;;;;1.33;0.47;;;16.10;87.80;;;;;;4154652;28;20052;-43
2024/03/24 02:31:13;;;;;;;0.32;0.32;;;16.10;87.70;;;;;;4169249;28;20056;-42
2024/03/24 02:33:51;;;;;;;1.52;0.50;;;16.20;87.60;;;;;;4170713;28;20052;-42
2024/03/24 02:36:31;;;;;;;0.40;0.40;;;16.30;87.70;;;;;;4155536;28;20056;-42
2024/03/24 02:39:12;;;;;;;1.13;0.50;;;16.30;87.80;;;;;;4152540;28;20103;-44
2024/03/24 02:41:52;;;;;;;1.35;0.77;;;16.30;87.50;;;;;;4158095;28;20059;-45
2024/03/24 02:44:31;;;;;;;1.25;0.60;;;16.40;87.50;;;;;;4158850;28;20121;-42
2024/03/24 02:47:11;;;;;;;0.70;0.40;;;16.50;87.00;;;;;;4170485;28;20522;-43
2024/03/24 02:49:49;;;;;;;2.72;0.80;;;16.60;86.50;;;;;;4165045;28;20056;-47
2024/03/24 02:52:29;;;;;;;0.68;0.50;;;16.60;86.00;;;;;;4154140;28;20107;-44
2024/03/24 02:55:10;;;;;;;0.82;0.55;;;16.60;86.30;;;;;;4153686;28;20055;-43
2024/03/24 02:57:50;;;;;;;1.23;0.50;;;16.60;85.70;;;;;;4137619;28;20192;-46
2024/03/24 03:00:29;;;;;;;0.70;0.70;;;16.60;85.90;;;;;;4143484;28;20056;-43
2024/03/24 03:03:09;;;;;;;2.08;0.60;;;16.70;86.20;;;;;;4170396;28;20498;-46
2024/03/24 03:05:48;;;;;;;3.08;0.80;;;16.70;85.70;;;;;;4165391;28;20051;-44
2024/03/24 03:08:29;;;;;;;1.20;0.80;;;16.60;85.70;;;;;;4153736;28;20083;-44
2024/03/24 03:11:09;;;;;;;2.60;0.73;;;16.60;85.60;;;;;;4158365;28;20053;-46
2024/03/24 03:13:49;;;;;;;1.30;0.93;;;16.70;85.20;;;;;;4168553;28;20450;-42
2024/03/24 03:16:28;;;;;;;3.92;0.80;;;16.70;85.50;;;;;;4169756;28;20538;-44
2024/03/24 03:19:08;;;;;;;2.35;0.90;;;16.70;85.50;;;;;;4169498;28;20056;-42
2024/03/24 03:21:47;;;;;;;3.33;0.88;;;16.70;85.60;;;;;;4147233;28;20117;-44
2024/03/24 03:24:27;;;;;;;2.60;1.00;;;16.70;85.90;;;;;;4169956;28;20070;-43
2024/03/24 03:27:10;;;;;;;1.23;0.60;;;16.70;86.80;;;;;;4154382;28;20056;-46
2024/03/24 03:29:50;;;;;;;1.80;0.73;;;16.70;85.70;;;;;;4153027;28;20148;-39
2024/03/24 03:32:30;;;;;;;2.50;1.23;;;16.70;85.40;;;;;;4162512;28;20055;-46
2024/03/24 03:35:10;;;;;;;2.90;0.90;;;16.70;85.90;;;;;;4169992;28;20059;-41
2024/03/24 03:37:49;;;;;;;1.17;0.88;;;16.70;86.00;;;;;;4144940;28;20119;-43
2024/03/24 03:40:30;;;;;;;3.00;1.00;;;16.70;85.60;;;;;;4155054;28;20099;-41
2024/03/24 03:43:11;;;;;;;2.25;1.23;;;16.70;85.60;;;;;;4142566;28;20491;-45
2024/03/24 03:45:52;;;;;;;2.10;0.75;;;16.70;85.50;;;;;;4153652;28;20068;-46
2024/03/24 03:48:31;;;;;;;2.40;1.05;;;16.80;85.60;;;;;;4153483;28;20072;-43
2024/03/24 03:51:17;;;;;;;3.80;1.27;;;16.70;85.50;;;;;;4153486;28;20083;-42
2024/03/24 03:53:58;;;;;;;1.35;0.95;;;16.80;84.90;;;;;;4169555;28;20056;-47
2024/03/24 03:56:38;;;;;;;1.63;0.90;;;16.80;84.90;;;;;;4168029;28;20052;-45
2024/03/24 03:59:19;;;;;;;2.65;0.88;;;16.70;85.30;;;;;;4155086;28;20074;-45
2024/03/24 04:01:58;;;;;;;;;;;16.70;85.10;;;;;;4161032;28;20057;-42
2024/03/24 04:04:41;;;;;;;3.70;1.48;;;16.70;85.50;;;;;;4152956;28;19980;-42
2024/03/24 04:07:20;;;;;;;3.85;1.20;;;16.70;85.70;;;;;;4153556;28;20052;-41
2024/03/24 04:10:00;;;;;;;2.85;1.05;;;16.60;85.60;;;;;;4154632;28;20052;-42
2024/03/24 04:12:39;;;;;;;7.03;1.13;;;16.60;85.90;;;;;;4155997;28;20057;-45
2024/03/24 04:15:20;;;;;;;2.50;1.08;;;16.70;86.00;;;;;;4152593;28;20055;-44
2024/03/24 04:18:00;;;;;;;4.05;1.02;;;16.70;86.00;;;;;;4153461;28;20053;-46
2024/03/24 04:20:41;;;;;;;3.63;1.00;;;16.60;86.00;;;;;;4141335;28;20052;-42
2024/03/24 04:23:20;;;;;;;2.33;1.23;;;16.60;85.80;;;;;;4140851;28;20053;-45
2024/03/24 04:26:00;;;;;;;3.60;1.20;;;16.60;86.90;;;;;;4152956;28;20052;-45
2024/03/24 04:28:39;;;;;;;2.30;0.80;;;16.60;86.00;;;;;;4152928;28;20135;-47
2024/03/24 04:31:20;;;;;;;2.72;1.00;;;16.60;86.40;;;;;;4153624;28;20508;-45
2024/03/24 04:33:59;;;;;;;;;;;16.60;86.40;;;;;;4153604;28;20412;-43
2024/03/24 04:36:39;;;;;;;3.78;1.23;;;16.60;86.60;;;;;;4153043;28;19948;-43
2024/03/24 04:39:19;;;;;;;2.72;1.13;;;16.60;86.60;;;;;;4153039;28;20384;-45
2024/03/24 04:41:59;;;;;;;3.67;0.93;;;16.60;86.50;;;;;;4147378;28;20098;-47
2024/03/24 04:44:40;;;;;;;2.05;0.98;;;16.60;86.60;;;;;;4140590;28;20556;-46
2024/03/24 04:47:21;;;;;;;3.03;0.98;;;16.60;86.70;;;;;;4148894;28;20057;-43
2024/03/24 04:50:01;;;;;;;2.28;0.95;;;16.50;86.70;;;;;;4160575;28;20071;-43
2024/03/24 04:52:40;;;;;;;1.95;0.90;;;16.50;86.80;;;;;;4155022;28;20132;-46
2024/03/24 04:55:20;;;;;;;2.80;0.90;;;16.50;87.00;;;;;;4171402;28;20044;-42
2024/03/24 04:58:01;;;;;;;1.17;0.80;;;16.50;86.80;;;;;;4171775;28;20056;-41
2024/03/24 05:00:41;;;;;;;1.98;1.00;;;16.60;86.70;;;;;;4165664;28;20107;-42
2024/03/24 05:03:21;;;;;;;1.95;1.00;;;16.60;86.60;;;;;;4154964;28;20111;-42
2024/03/24 05:06:03;;;;;;;3.22;1.08;;;16.60;86.70;;;;;;4143617;28;20140;-41
2024/03/24 05:08:42;;;;;;;5.60;1.13;;;16.60;86.70;;;;;;4154845;28;20064;-44
2024/03/24 05:11:22;;;;;;;2.97;0.80;;;16.50;88.00;;;;;;4156493;28;20048;-41
2024/03/24 05:14:03;;;;;;;3.33;0.90;;;16.50;87.00;;;;;;4165186;28;20080;-41
2024/03/24 05:16:43;;;;;;;4.90;0.80;;;16.60;86.80;;;;;;4171476;28;20055;-42
2024/03/24 05:19:23;;;;;;;1.60;0.90;;;16.50;86.50;;;;;;4171609;28;20462;-42
2024/03/24 05:22:04;;;;;;;3.45;0.82;;;16.50;86.10;;;;;;4155078;28;20056;-42
2024/03/24 05:24:45;;;;;;;3.75;1.33;;;16.50;86.60;;;;;;4156721;28;20633;-42
2024/03/24 05:27:24;;;;;;;5.82;1.02;;;16.50;86.80;;;;;;4154895;28;20056;-44
2024/03/24 05:30:04;;;;;;;3.35;1.35;;;16.50;86.90;;;;;;4155160;28;20048;-43
2024/03/24 05:32:46;;;;;;;7.18;1.15;;;16.50;86.90;;;;;;4143067;28;20079;-43
2024/03/24 05:35:26;;;;;;;;;;;16.50;87.10;;;;;;4154909;28;20056;-42
2024/03/24 05:38:06;;;;;;;6.68;1.25;;;16.50;87.20;;;;;;4154473;28;20012;-46
2024/03/24 05:40:45;;;;;;;3.13;0.98;;;16.60;87.30;;;;;;4155654;28;21069;-44
2024/03/24 05:43:24;;;;;;;2.20;0.90;;;16.60;86.60;;;;;;4169620;28;20083;-46
2024/03/24 05:46:06;;;;;;;4.25;1.30;;;16.60;86.60;;;;;;4159505;28;20102;-44
2024/03/24 05:48:46;;;;;;;3.20;0.90;;;16.60;86.80;;;;;;4169739;28;20048;-47
2024/03/24 05:51:26;;;;;;;3.35;0.80;;;16.60;86.80;;;;;;4170582;28;20052;-43
2024/03/24 05:54:07;;;;;;;2.97;0.90;;;16.50;86.90;;;;;;4170850;28;20120;-47
2024/03/24 05:56:47;;;;;;;;;;;16.60;87.20;;;;;;4171060;28;20059;-48
2024/03/24 05:59:27;;;;;;;3.95;1.30;;;16.60;86.90;;;;;;4169935;28;20018;-45
2024/03/24 06:02:06;;;;;;;2.55;0.95;;;16.60;86.60;;;;;;4142851;28;20547;-45
2024/03/24 06:04:46;;;;;;;1.35;0.95;;;16.60;87.20;;;;;;4154064;28;20056;-45
2024/03/24 06:07:26;;;;;;;3.17;0.80;;;16.60;86.20;;;;;;4158650;28;20067;-44
2024/03/24 06:10:08;;;;;;;2.97;0.95;;;16.60;86.20;;;;;;4144486;28;20049;-42
2024/03/24 06:12:48;;;;;;;2.20;0.50;;;16.60;86.60;;;;;;4157400;28;20130;-40
2024/03/24 06:15:29;;;;;;;1.67;0.45;;;16.50;86.40;;;;;;4155520;28;20088;-40
2024/03/24 06:18:08;;;;;;;3.80;1.30;;;16.50;87.70;;;;;;4170261;28;20076;-39
2024/03/24 06:20:47;;;;;;;4.78;0.88;;;16.50;86.80;;;;;;4161251;28;20053;-40
2024/03/24 06:23:28;;;;;;;3.20;0.93;;;16.50;86.80;;;;;;4154586;28;20053;-39
2024/03/24 06:26:08;;;;;;;2.10;0.68;;;16.60;86.40;;;;;;4154010;28;20052;-39
2024/03/24 06:28:48;;;;;;;2.28;1.08;;;16.60;86.20;;;;;;4153953;28;20060;-39
2024/03/24 06:31:28;;;;;;;1.77;1.10;;;16.60;86.00;;;;;;4153874;28;20097;-41
2024/03/24 06:34:07;;;;;;;3.63;1.08;;;16.60;85.90;;;;;;4155282;28;20056;-44
2024/03/24 06:36:47;;;;;;;2.05;0.90;;;16.70;86.10;;;;;;4169143;28;20419;-47
2024/03/24 06:39:27;;;;;;;4.13;0.90;;;16.70;86.30;;;;;;4169323;28;20059;-46
2024/03/24 06:42:08;;;;;;;3.67;0.95;;;16.70;86.10;;;;;;4165392;28;20784;-43
2024/03/24 06:44:50;;;;;;;2.45;0.70;;;16.70;86.20;;;;;;4170077;28;20083;-43
2024/03/24 06:47:30;;;;;;;2.53;0.90;;;16.60;86.20;;;;;;4170301;28;20079;-45
2024/03/24 06:50:12;;;;;;;2.10;0.80;;;16.60;86.30;;;;;;4167707;28;20059;-44
2024/03/24 06:52:52;;;;;;;6.22;1.30;;;16.60;86.60;;;;;;4170550;28;20140;-46
2024/03/24 06:55:33;;;;;;;4.32;1.10;;;16.60;86.70;;;;;;4158313;28;20519;-44
2024/03/24 06:58:12;;;;;;;2.30;1.13;;;16.60;86.30;;;;;;4169182;28;20059;-46
2024/03/24 07:00:53;;;;;;;5.35;1.30;;;16.60;86.10;;;;;;4170191;28;20404;-43
2024/03/24 07:03:32;;;;;;;3.22;0.95;;;16.60;86.20;;;;;;4166664;28;20144;-47
2024/03/24 07:06:13;;;;;;;6.28;1.33;;;16.60;86.40;;;;;;4161705;28;20048;-43
2024/03/24 07:08:52;;;;;;;4.30;1.50;;;16.60;86.30;;;;;;4169337;28;20133;-44
2024/03/24 07:11:33;;;;;;;2.50;0.93;;;16.60;86.50;;;;;;4157709;28;20056;-44
2024/03/24 07:14:12;;;;;;;5.05;0.88;;;16.60;86.50;;;;;;4160278;28;20060;-42
2024/03/24 07:16:52;;;;;;;4.97;1.02;;;16.60;86.20;;;;;;4168484;28;20087;-40
2024/03/24 07:19:32;;;;;;;4.07;1.17;;;16.60;86.40;;;;;;4158367;28;20048;-50
2024/03/24 07:22:12;;;;;;;4.40;1.00;;;16.50;86.40;;;;;;4141920;28;20064;-46
2024/03/24 07:24:51;;;;;;;3.17;1.08;;;16.50;86.90;;;;;;4153115;28;20053;-45
2024/03/24 07:27:32;;;;;;;3.53;1.20;;;16.50;86.70;;;;;;4150735;28;20068;-43
2024/03/24 07:30:12;;;;;;;1.83;1.10;;;16.50;87.00;;;;;;4154254;28;20149;-44
2024/03/24 07:32:52;;;;;;;4.50;1.20;;;16.60;86.80;;;;;;4154319;28;20084;-41
2024/03/24 07:35:31;;;;;;;5.57;1.40;;;16.60;86.10;;;;;;4152875;28;20051;-42
2024/03/24 07:38:11;;;;;;;3.45;1.40;;;16.50;85.40;;;;;;4142808;28;20240;-41
2024/03/24 07:40:50;;;;;;;5.03;1.40;;;16.60;85.30;;;;;;4161410;28;20461;-46
2024/03/24 07:43:32;;;;;;;4.03;1.10;;;16.60;85.40;;;;;;4157250;28;20052;-44
2024/03/24 07:46:11;;;;;;;;;;;16.60;85.10;;;;;;4161288;28;20055;-45
2024/03/24 07:48:51;;;;;;;5.72;0.80;;;16.70;85.20;;;;;;4154643;28;19932;-43
2024/03/24 07:51:31;;;;;;;6.68;1.23;;;16.70;84.60;;;;;;4150724;28;20072;-44
2024/03/24 07:54:11;;;;;;;3.72;0.90;;;16.70;84.60;;;;;;4163527;28;20060;-46
2024/03/24 07:56:50;;;;;;;6.65;1.05;;;16.70;84.20;;;;;;4169244;28;20048;-43
2024/03/24 07:59:31;;;;;;;2.13;0.77;;;16.60;84.50;;;;;;4144439;28;20100;-42
2024/03/24 08:02:11;;;;;;;4.20;1.63;;;16.60;83.70;;;;;;4136328;28;20057;-46
2024/03/24 08:04:50;;;;;;;7.00;1.20;;;16.50;84.30;;;;;;4136765;28;20104;-38
2024/03/24 08:07:30;;;;;;;4.90;1.13;;;16.50;83.80;;;;;;4136969;28;20136;-38
2024/03/24 08:10:12;;;;;;;4.18;1.02;;;16.40;83.90;;;;;;4148458;28;20060;-38
2024/03/24 08:12:52;;;;;;;1.92;0.73;;;16.40;83.90;;;;;;4156349;28;20403;-38
2024/03/24 08:15:33;;;;;;;3.15;0.82;;;16.40;83.90;;;;;;4169340;28;20063;-38
2024/03/24 08:18:14;;;;;;;4.95;0.77;;;16.40;83.70;;;;;;4169108;28;20079;-47
2024/03/24 08:20:53;;;;;;;2.10;0.70;;;16.40;83.70;;;;;;4170793;28;20146;-42
2024/03/24 08:23:33;;;;;;;3.90;0.77;;;16.40;83.50;;;;;;4160756;28;20052;-42
2024/03/24 08:26:12;;;;;;;3.07;0.83;;;16.40;83.30;;;;;;4146066;28;20053;-42
2024/03/24 08:28:52;;;;;;;3.70;0.98;;;16.40;83.40;;;;;;4155329;28;20052;-42
2024/03/24 08:31:32;;;;;;;2.92;1.02;;;16.30;83.40;;;;;;4154338;28;20052;-40
2024/03/24 08:34:12;;;;;;;2.97;0.82;;;16.30;83.40;;;;;;4164006;28;20129;-42
2024/03/24 08:36:51;;;;;;;4.10;0.80;;;16.30;84.10;;;;;;4172409;28;20082;-43
2024/03/24 08:39:32;;;;;;;2.20;1.02;;;16.30;83.30;;;;;;4168605;28;20075;-43
2024/03/24 08:42:11;;;;;;;1.98;0.70;;;16.20;83.30;;;;;;4168473;28;20060;-42
2024/03/24 08:44:51;;;;;;;1.20;0.90;;;16.20;83.50;;;;;;4169889;28;20055;-43
2024/03/24 08:47:32;;;;;;;2.88;0.63;;;16.10;83.40;;;;;;4156390;28;20616;-42
2024/03/24 08:50:12;;;;;;;3.45;0.80;;;16.20;83.70;;;;;;4167903;28;20499;-44
2024/03/24 08:52:51;;;;;;;2.78;1.25;;;16.10;83.30;;;;;;4154261;28;20060;-43
2024/03/24 08:55:31;;;;;;;0.63;0.40;;;16.10;83.40;;;;;;4158208;28;20103;-44
2024/03/24 08:58:11;;;;;;;0.98;0.30;;;16.10;83.30;;;;;;4167633;28;20399;-45
2024/03/24 09:00:54;;;;;;;0.95;0.40;;;16.10;83.10;;;;;;4165726;28;20502;-40
2024/03/24 09:03:34;;;;;;;0.65;0.43;;;16.10;83.00;;;;;;4171887;28;20060;-39
2024/03/24 09:06:15;;;;;;;1.38;0.52;;;16.10;82.80;;;;;;4171598;28;20079;-38
2024/03/24 09:08:54;;;;;;;3.15;0.95;;;16.10;83.00;;;;;;4165626;28;20060;-39
2024/03/24 09:11:35;;;;;;;3.00;1.20;;;16.10;83.00;;;;;;4167640;28;20099;-39
2024/03/24 09:14:14;;;;;;;3.22;0.50;;;16.10;82.90;;;;;;4171055;28;20083;-39
2024/03/24 09:16:53;;;;;;;6.70;1.40;;;16.10;82.80;;;;;;4171376;28;20535;-39
2024/03/24 09:19:34;;;;;;;3.08;0.98;;;16.10;83.00;;;;;;4154911;28;20059;-39
2024/03/24 09:22:14;;;;;;;4.85;0.98;;;16.10;82.70;;;;;;4169017;28;20060;-39
2024/03/24 09:24:54;;;;;;;3.15;0.75;;;16.10;83.00;;;;;;4159602;28;20065;-39
2024/03/24 09:27:34;;;;;;;4.38;1.40;;;16.00;83.20;;;;;;4154168;28;20048;-39
2024/03/24 09:30:14;;;;;;;2.53;0.70;;;16.00;83.20;;;;;;4153623;28;20107;-39
2024/03/24 09:32:54;;;;;;;2.22;0.75;;;15.90;84.10;;;;;;4156155;28;20056;-45
2024/03/24 09:35:35;;;;;;;6.93;1.45;;;15.90;83.40;;;;;;4159126;28;20055;-48
2024/03/24 09:38:15;;;;;;;6.43;1.95;;;15.80;83.60;;;;;;4171135;28;20408;-48
2024/03/24 09:40:54;;;;;;;4.82;0.95;;;15.80;83.90;;;;;;4161287;28;20048;-45
2024/03/24 09:43:35;;;;;;;7.43;1.77;;;15.70;83.90;;;;;;4171102;28;20052;-49
2024/03/24 09:46:14;;;;;;;6.97;1.92;;;15.70;84.10;;;;;;4157024;28;20061;-48
2024/03/24 09:48:56;;;;;;;6.45;1.70;;;15.60;84.10;;;;;;4160194;28;20052;-47
2024/03/24 09:51:38;;;;;;;6.25;1.30;;;15.60;84.50;;;;;;4155304;28;20049;-43
2024/03/24 09:54:18;;;;;;;8.43;1.83;;;15.80;84.70;;;;;;4152089;28;20124;-42
2024/03/24 09:56:58;;;;;;;8.35;1.90;;;16.10;83.90;;;;;;4152817;28;20060;-48
2024/03/24 09:59:40;;;;;;;4.50;1.45;;;16.50;82.30;;;;;;4148725;28;20052;-44
2024/03/24 10:02:19;;;;;;;8.43;1.63;;;17.00;80.80;;;;;;4163147;28;20056;-44
2024/03/24 10:04:59;;;;;;;7.18;1.90;;;17.40;78.90;;;;;;4155347;28;20095;-46
2024/03/24 10:07:40;;;;;;;5.90;1.90;;;17.90;77.10;;;;;;4152864;28;20542;-45
2024/03/24 10:10:20;;;;;;;8.83;1.97;;;18.30;76.20;;;;;;4153271;28;20080;-48
2024/03/24 10:13:03;;;;;;;6.85;1.70;;;18.60;73.90;;;;;;4142852;28;20099;-43
2024/03/24 10:15:43;;;;;;;9.13;2.85;;;18.90;73.10;;;;;;4148290;28;20506;-45
2024/03/24 10:18:24;;;;;;;6.28;1.95;;;19.10;72.10;;;;;;4168919;28;20059;-39
2024/03/24 10:21:04;;;;;;;5.57;1.55;;;19.10;71.30;;;;;;4165543;28;20057;-39
2024/03/24 10:23:46;;;;;;;6.05;1.40;;;19.10;71.60;;;;;;4142112;28;20052;-39
2024/03/24 10:26:26;;;;;;;3.95;1.58;;;19.10;72.40;;;;;;4164402;28;20043;-38
2024/03/24 10:29:05;;;;;;;6.13;2.00;;;19.00;72.30;;;;;;4169215;28;20102;-39
2024/03/24 10:31:46;;;;;;;6.47;1.60;;;19.00;72.00;;;;;;4134367;28;20064;-39
2024/03/24 10:34:31;;;;;;;5.72;1.45;;;19.00;72.20;;;;;;4151886;28;20056;-39
2024/03/24 10:37:12;;;;;;;6.15;1.88;;;19.00;72.40;;;;;;4167433;28;20423;-45
2024/03/24 10:39:53;;;;;;;4.22;1.42;;;18.90;72.90;;;;;;4170797;28;20123;-44
2024/03/24 10:42:33;;;;;;;5.38;1.55;;;18.90;72.50;;;;;;4152379;28;20052;-39
2024/03/24 10:45:14;;;;;;;6.32;1.40;;;18.80;72.80;;;;;;4147374;28;20144;-38
2024/03/24 10:48:03;;;;;;;9.90;1.95;;;18.70;73.50;;;;;;4156421;28;20068;-39
2024/03/24 10:50:44;;;;;;;5.38;1.67;;;18.70;74.10;;;;;;4142927;28;20057;-43
2024/03/24 10:53:26;;;;;;;6.73;1.70;;;18.70;74.30;;;;;;4136726;28;20141;-38
2024/03/24 10:56:08;;;;;;;4.10;1.65;;;18.70;74.60;;;;;;4145030;28;20833;-38
2024/03/24 10:58:49;;;;;;;9.57;2.00;;;18.70;74.20;;;;;;4157673;28;20047;-39
2024/03/24 11:01:28;;;;;;;8.50;1.48;;;18.80;74.00;;;;;;4146570;28;20401;-39
2024/03/24 11:04:09;;;;;;;7.45;2.10;;;18.90;73.70;;;;;;4154764;28;20060;-39
2024/03/24 11:06:49;;;;;;;8.77;2.33;;;18.90;73.50;;;;;;4168191;28;20136;-39
2024/03/24 11:09:30;;;;;;;8.00;2.00;;;19.00;73.90;;;;;;4165926;28;20059;-39
2024/03/24 11:12:13;;;;;;;5.53;1.63;;;19.10;73.10;;;;;;4150507;28;20123;-39
2024/03/24 11:14:53;;;;;;;8.73;1.77;;;19.10;72.90;;;;;;4168668;28;20060;-39
2024/03/24 11:17:34;;;;;;;4.22;1.67;;;19.10;72.70;;;;;;4157849;28;20059;-45
2024/03/24 11:20:17;;;;;;;6.82;2.15;;;19.10;72.10;;;;;;4165546;28;20083;-46
2024/03/24 11:22:57;;;;;;;6.60;1.83;;;19.10;72.20;;;;;;4154323;28;20556;-40
2024/03/24 11:25:38;;;;;;;6.35;1.60;;;19.00;72.50;;;;;;4164187;28;20130;-40
2024/03/24 11:28:40;;;;;;;5.50;1.88;;;18.90;72.30;;;;;;4169177;28;20055;-39
2024/03/24 11:31:36;;;;;;;8.50;2.03;;;18.90;72.80;;;;;;4163226;28;20055;-40
2024/03/24 11:34:16;;;;;;;6.78;2.10;;;18.70;73.10;;;;;;4162861;28;20424;-40
2024/03/24 11:36:56;;;;;;;4.93;1.67;;;18.70;73.20;;;;;;4153500;28;20064;-39
2024/03/24 11:39:35;;;;;;;8.27;1.88;;;18.70;73.20;;;;;;4152046;28;20286;-40
2024/03/24 11:42:19;;;;;;;4.80;1.30;;;18.80;72.90;;;;;;4153435;28;20144;-40
2024/03/24 11:45:20;;;;;;;4.63;1.70;;;18.80;73.30;;;;;;4158400;28;20099;-45
2024/03/24 11:48:31;;;;;;;7.40;2.22;;;18.90;74.30;;;;;;4151808;28;20083;-42
2024/03/24 11:51:11;;;;;;;3.08;2.00;;;18.90;73.10;;;;;;4136496;28;20568;-40
2024/03/24 11:53:52;;;;;;;8.50;1.75;;;19.00;73.70;;;;;;4137403;28;20052;-39
2024/03/24 11:56:34;;;;;;;5.18;1.40;;;18.90;73.50;;;;;;4169607;28;20064;-39
2024/03/24 11:59:14;;;;;;;4.78;1.70;;;19.00;73.40;;;;;;4173385;28;20102;-39
2024/03/24 12:01:54;;;;;;;4.57;1.25;;;19.10;73.00;;;;;;4173054;28;20060;-40
2024/03/24 12:04:34;;;;;;;7.15;2.17;;;19.10;72.80;;;;;;4171083;28;20408;-40
2024/03/24 12:07:14;;;;;;;6.00;1.60;;;19.10;73.00;;;;;;4170070;28;20097;-39
2024/03/24 12:09:54;;;;;;;7.05;1.40;;;19.10;73.20;;;;;;4157500;28;20785;-39
2024/03/24 12:12:33;;;;;;;3.38;1.65;;;19.10;73.20;;;;;;4172880;28;20129;-44
2024/03/24 12:15:13;;;;;;;2.35;1.50;;;18.90;73.00;;;;;;4172774;28;20055;-44
2024/03/24 12:18:05;;;;;;;4.82;1.30;;;18.90;73.10;;;;;;4172290;28;20198;-43
2024/03/24 12:20:46;;;;;;;1.20;1.08;;;18.80;73.10;;;;;;4171484;28;20134;-42
2024/03/24 12:23:26;;;;;;;2.40;1.42;;;18.80;73.40;;;;;;4162080;28;20411;-44
2024/03/24 12:26:06;;;;;;;2.30;1.10;;;18.80;73.40;;;;;;4172725;28;20111;-45
2024/03/24 12:28:51;;;;;;;2.47;1.63;;;18.80;74.00;;;;;;4172348;28;20067;-44
2024/03/24 12:31:31;;;;;;;4.57;1.42;;;18.90;69.10;;;;;;4129655;28;20148;-46
2024/03/24 12:34:13;;;;;;;1.90;1.23;;;19.10;70.60;;;;;;4156970;28;20139;-46
2024/03/24 12:36:53;;;;;;;2.80;1.15;;;19.30;70.30;;;;;;4169399;28;20126;-43
2024/03/24 12:39:33;;;;;;;3.10;1.50;;;19.50;70.10;;;;;;4160853;28;20445;-51
2024/03/24 12:42:14;;;;;;;5.82;2.15;;;19.70;70.00;;;;;;4172166;28;20055;-43
2024/03/24 12:45:06;;;;;;;4.23;1.27;;;19.90;69.60;;;;;;4170969;28;20056;-47
2024/03/24 12:47:46;;;;;;;5.93;1.90;;;20.00;69.30;;;;;;4159983;28;20672;-44
2024/03/24 12:50:27;;;;;;;7.68;1.70;;;20.10;69.80;;;;;;4171803;28;20098;-45
2024/03/24 12:53:15;;;;;;;5.57;1.98;;;20.20;69.00;;;;;;4165611;28;20052;-45
2024/03/24 12:55:59;;;;;;;6.07;1.80;;;20.30;68.40;;;;;;4170858;28;20051;-40
2024/03/24 12:58:41;;;;;;;2.15;1.45;;;20.40;68.30;;;;;;4165118;28;20075;-40
2024/03/24 13:01:22;;;;;;;7.40;1.88;;;20.40;68.30;;;;;;4171679;28;20055;-41
2024/03/24 13:04:04;;;;;;;5.07;1.52;;;20.40;68.60;;;;;;4160286;28;20391;-41
2024/03/24 13:06:47;;;;;;;10.20;1.88;;;20.40;68.70;;;;;;4170146;28;20079;-45
2024/03/24 13:09:29;;;;;;;4.55;1.63;;;20.40;68.10;;;;;;4171782;28;20060;-45
2024/03/24 13:12:09;;;;;;;7.35;1.92;;;20.40;68.20;;;;;;4172169;28;20111;-43
2024/03/24 13:14:49;;;;;;;6.13;1.83;;;20.40;68.40;;;;;;4170410;28;20052;-43
2024/03/24 13:17:31;;;;;;;8.07;1.88;;;20.40;68.00;;;;;;4154847;28;20049;-47
2024/03/24 13:20:15;;;;;;;7.35;2.08;;;20.40;68.30;;;;;;4153967;28;20056;-41
2024/03/24 13:22:59;;;;;;;4.72;1.80;;;20.50;68.40;;;;;;4162362;28;20118;-46
2024/03/24 13:25:41;;;;;;;5.57;2.70;;;20.40;68.60;;;;;;4171272;28;20047;-48
2024/03/24 13:28:21;;;;;;;5.57;2.28;;;20.40;68.50;;;;;;4160520;28;20098;-42
2024/03/24 13:31:00;;;;;;;4.43;1.80;;;20.30;68.30;;;;;;4170523;28;20048;-47
2024/03/24 13:33:40;;;;;;;10.25;2.33;;;20.20;68.30;;;;;;4168607;28;20561;-46
2024/03/24 13:36:30;;;;;;;7.03;3.00;;;20.20;69.30;;;;;;4171142;28;20056;-45
2024/03/24 13:39:20;;;;;;;2.58;1.58;;;20.20;68.90;;;;;;4171491;28;20083;-49
2024/03/24 13:42:11;;;;;;;3.67;1.70;;;20.20;69.10;;;;;;4170787;28;20132;-43
2024/03/24 13:45:03;;;;;;;6.40;1.67;;;20.20;68.60;;;;;;4168136;28;20618;-48
2024/03/24 13:47:43;;;;;;;4.22;2.17;;;20.30;68.90;;;;;;4151347;28;20476;-42
2024/03/24 13:50:23;;;;;;;6.65;1.73;;;20.40;68.80;;;;;;4156830;28;20048;-43
2024/03/24 13:53:05;;;;;;;7.22;1.73;;;20.40;68.50;;;;;;4171056;28;20099;-44
2024/03/24 13:55:46;;;;;;;3.33;1.40;;;20.50;68.10;;;;;;4171190;28;20106;-43
2024/03/24 13:58:25;;;;;;;4.70;1.52;;;20.50;68.00;;;;;;4170975;28;20080;-45